createdAt,value
2023-01-13T00:00:04.266Z,1.03
2023-01-13T00:02:39.036Z,0.90
2023-01-13T00:05:07.256Z,1.00
2023-01-13T00:07:34.650Z,1.23
2023-01-13T00:10:02.011Z,0.80
2023-01-13T00:12:29.381Z,0.90
2023-01-13T00:14:57.051Z,1.20
2023-01-13T00:17:24.372Z,1.00
2023-01-13T00:19:51.711Z,0.90
2023-01-13T00:22:19.096Z,0.70
2023-01-13T00:24:46.582Z,0.60
2023-01-13T00:27:13.946Z,1.10
2023-01-13T00:29:41.258Z,0.80
2023-01-13T00:32:08.589Z,0.70
2023-01-13T00:34:35.910Z,0.80
2023-01-13T00:37:03.264Z,0.83
2023-01-13T00:39:30.567Z,0.77
2023-01-13T00:42:23.969Z,0.70
2023-01-13T00:44:51.285Z,0.80
2023-01-13T00:47:18.887Z,0.80
2023-01-13T00:49:46.202Z,1.27
2023-01-13T00:52:13.558Z,1.60
2023-01-13T00:54:40.881Z,0.80
2023-01-13T00:57:08.433Z,0.77
2023-01-13T00:59:35.762Z,0.60
2023-01-13T01:02:03.256Z,0.70
2023-01-13T01:04:30.940Z,0.60
2023-01-13T01:06:58.357Z,0.97
2023-01-13T01:09:32.536Z,0.80
2023-01-13T01:12:00.552Z,0.77
2023-01-13T01:14:28.086Z,0.73
2023-01-13T01:16:55.532Z,0.80
2023-01-13T01:19:23.528Z,0.97
2023-01-13T01:21:50.949Z,1.57
2023-01-13T01:24:18.317Z,0.80
2023-01-13T01:26:45.729Z,0.60
2023-01-13T01:29:15.239Z,0.60
2023-01-13T01:31:42.724Z,0.60
2023-01-13T01:34:10.249Z,0.50
2023-01-13T01:36:38.780Z,0.60
2023-01-13T01:39:06.852Z,0.90
2023-01-13T01:41:35.424Z,0.70
2023-01-13T01:44:43.554Z,0.80
2023-01-13T01:47:13.742Z,0.87
2023-01-13T01:49:41.871Z,0.50
2023-01-13T01:52:17.091Z,0.80
2023-01-13T01:54:58.615Z,0.60
2023-01-13T01:57:53.968Z,0.70
2023-01-13T02:00:21.887Z,0.60
2023-01-13T02:02:50.451Z,0.70
2023-01-13T02:05:18.115Z,0.60
2023-01-13T02:07:47.822Z,0.70
2023-01-13T02:10:18.304Z,0.50
2023-01-13T02:12:46.251Z,0.60
2023-01-13T02:15:15.655Z,0.70
2023-01-13T02:18:01.924Z,0.70
2023-01-13T02:21:01.865Z,1.37
2023-01-13T02:23:59.801Z,0.80
2023-01-13T02:26:58.181Z,0.60
2023-01-13T02:30:05.793Z,1.07
2023-01-13T02:33:08.547Z,0.70
2023-01-13T02:35:47.312Z,0.60
2023-01-13T02:38:16.605Z,0.90
2023-01-13T02:41:25.823Z,0.80
2023-01-13T02:44:10.388Z,0.60
2023-01-13T02:47:16.482Z,1.00
2023-01-13T02:49:56.446Z,0.70
2023-01-13T02:52:32.614Z,0.67
2023-01-13T02:55:05.684Z,0.53
2023-01-13T02:57:35.041Z,0.60
2023-01-13T03:00:04.827Z,0.80
2023-01-13T03:02:32.287Z,0.90
2023-01-13T03:05:00.363Z,0.60
2023-01-13T03:07:46.145Z,0.63
2023-01-13T03:10:34.643Z,1.10
2023-01-13T03:13:03.896Z,0.70
2023-01-13T03:15:54.954Z,0.83
2023-01-13T03:18:44.183Z,0.60
2023-01-13T03:21:17.261Z,0.60
2023-01-13T03:24:04.467Z,0.77
2023-01-13T03:26:49.558Z,0.73
2023-01-13T03:29:40.847Z,0.60
2023-01-13T03:32:15.544Z,0.70
2023-01-13T03:35:21.234Z,1.20
2023-01-13T03:37:52.609Z,0.77
2023-01-13T03:40:25.133Z,0.97
2023-01-13T03:43:21.186Z,1.03
2023-01-13T03:45:53.415Z,1.00
2023-01-13T03:48:21.240Z,1.00
2023-01-13T03:50:50.886Z,0.70
2023-01-13T03:53:25.341Z,0.70
2023-01-13T03:55:58.059Z,0.80
2023-01-13T03:58:31.271Z,0.60
2023-01-13T04:01:16.540Z,1.40
2023-01-13T04:04:02.050Z,0.60
2023-01-13T04:06:55.179Z,0.60
2023-01-13T04:09:47.904Z,0.70
2023-01-13T04:12:51.759Z,0.93
2023-01-13T04:15:27.442Z,1.23
2023-01-13T04:17:55.396Z,1.47
2023-01-13T04:20:22.359Z,0.50
2023-01-13T04:22:49.357Z,0.83
2023-01-13T04:25:16.376Z,0.60
2023-01-13T04:27:43.439Z,0.80
2023-01-13T04:30:11.327Z,0.60
2023-01-13T04:32:38.357Z,1.00
2023-01-13T04:35:05.744Z,0.73
2023-01-13T04:37:33.385Z,0.60
2023-01-13T04:40:00.256Z,0.60
2023-01-13T04:42:27.382Z,0.50
2023-01-13T04:44:54.471Z,0.80
2023-01-13T04:47:21.412Z,0.80
2023-01-13T04:49:48.363Z,0.70
2023-01-13T04:52:15.454Z,0.80
2023-01-13T04:54:42.398Z,0.90
2023-01-13T04:57:09.363Z,0.60
2023-01-13T04:59:36.324Z,0.80
2023-01-13T05:02:03.287Z,1.00
2023-01-13T05:04:30.375Z,1.07
2023-01-13T05:06:58.743Z,0.87
2023-01-13T05:09:25.777Z,0.70
2023-01-13T05:12:11.444Z,0.70
2023-01-13T05:14:56.856Z,0.87
2023-01-13T05:17:25.520Z,0.70
2023-01-13T05:19:52.563Z,0.50
2023-01-13T05:22:37.979Z,0.60
2023-01-13T05:25:24.397Z,1.13
2023-01-13T05:27:56.756Z,0.60
2023-01-13T05:30:30.547Z,0.70
2023-01-13T05:32:57.778Z,0.70
2023-01-13T05:35:25.376Z,0.77
2023-01-13T05:37:52.430Z,0.80
2023-01-13T05:40:38.170Z,0.67
2023-01-13T05:43:20.610Z,0.67
2023-01-13T05:45:57.343Z,0.80
2023-01-13T05:48:42.331Z,0.83
2023-01-13T05:51:11.973Z,0.70
2023-01-13T05:53:41.027Z,0.70
2023-01-13T05:56:09.556Z,0.60
2023-01-13T05:58:37.061Z,0.70
2023-01-13T06:01:07.925Z,0.60
2023-01-13T06:03:36.064Z,0.67
2023-01-13T06:06:04.268Z,0.80
2023-01-13T06:08:32.342Z,0.77
2023-01-13T06:10:59.809Z,0.60
2023-01-13T06:13:27.254Z,0.60
2023-01-13T06:15:58.546Z,0.67
2023-01-13T06:18:26.573Z,0.60
2023-01-13T06:20:53.795Z,0.50
2023-01-13T06:23:20.862Z,0.60
2023-01-13T06:26:08.383Z,0.60
2023-01-13T06:28:35.608Z,0.60
2023-01-13T06:31:07.018Z,0.70
2023-01-13T06:33:39.139Z,0.70
2023-01-13T06:36:15.300Z,0.67
2023-01-13T06:38:47.921Z,0.63
2023-01-13T06:41:15.585Z,0.80
2023-01-13T06:43:42.617Z,0.70
2023-01-13T06:46:09.548Z,0.80
2023-01-13T06:48:36.607Z,1.30
2023-01-13T06:51:04.816Z,0.60
2023-01-13T06:53:31.904Z,0.70
2023-01-13T06:55:58.958Z,0.50
2023-01-13T06:58:26.009Z,0.50
2023-01-13T07:00:53.719Z,0.60
2023-01-13T07:03:21.439Z,0.80
2023-01-13T07:05:55.821Z,0.70
2023-01-13T07:08:24.123Z,0.50
2023-01-13T07:10:51.529Z,0.80
2023-01-13T07:13:37.568Z,0.70
2023-01-13T07:16:07.407Z,0.50
2023-01-13T07:18:35.368Z,0.70
2023-01-13T07:21:09.128Z,0.50
2023-01-13T07:23:40.244Z,0.70
2023-01-13T07:26:09.636Z,0.70
2023-01-13T07:28:37.532Z,0.90
2023-01-13T07:31:05.833Z,1.00
2023-01-13T07:33:33.341Z,1.10
2023-01-13T07:36:05.325Z,0.60
2023-01-13T07:38:34.201Z,0.60
2023-01-13T07:41:21.980Z,0.53
2023-01-13T07:43:49.482Z,0.50
2023-01-13T07:46:16.875Z,0.90
2023-01-13T07:48:44.420Z,0.60
2023-01-13T07:51:12.979Z,0.60
2023-01-13T07:53:40.082Z,0.67
2023-01-13T07:56:08.407Z,0.73
2023-01-13T07:58:36.851Z,0.60
2023-01-13T08:01:14.341Z,0.80
2023-01-13T08:03:41.549Z,0.50
2023-01-13T08:06:10.358Z,0.60
2023-01-13T08:08:38.601Z,0.60
2023-01-13T08:11:08.209Z,0.60
2023-01-13T08:13:35.960Z,0.60
2023-01-13T08:16:09.304Z,0.53
2023-01-13T08:18:37.856Z,0.60
2023-01-13T08:21:14.911Z,0.70
2023-01-13T08:23:44.487Z,0.67
2023-01-13T08:26:18.027Z,0.60
2023-01-13T08:28:45.854Z,0.70
2023-01-13T08:31:16.532Z,0.60
2023-01-13T08:33:43.886Z,0.60
2023-01-13T08:36:12.753Z,0.70
2023-01-13T08:38:40.712Z,2.30
2023-01-13T08:41:14.120Z,0.77
2023-01-13T08:43:41.600Z,1.70
2023-01-13T08:46:08.787Z,0.80
2023-01-13T08:48:35.959Z,1.00
2023-01-13T08:51:07.237Z,1.27
2023-01-13T08:53:34.313Z,0.83
2023-01-13T08:56:01.369Z,1.80
2023-01-13T08:58:28.519Z,1.03
2023-01-13T09:00:55.627Z,0.70
2023-01-13T09:03:22.879Z,0.70
2023-01-13T09:05:49.920Z,0.70
2023-01-13T09:08:16.946Z,0.93
2023-01-13T09:10:44.087Z,1.00
2023-01-13T09:13:14.101Z,0.60
2023-01-13T09:15:44.937Z,0.70
2023-01-13T09:18:12.743Z,0.60
2023-01-13T09:20:39.927Z,0.70
2023-01-13T09:23:10.010Z,0.60
2023-01-13T09:25:37.534Z,0.70
2023-01-13T09:28:08.628Z,0.53
2023-01-13T09:30:37.574Z,0.60
2023-01-13T09:33:23.002Z,0.60
2023-01-13T09:35:50.155Z,0.90
2023-01-13T09:38:17.115Z,0.90
2023-01-13T09:40:44.376Z,0.70
2023-01-13T09:43:39.859Z,0.50
2023-01-13T09:46:47.140Z,0.70
2023-01-13T09:49:20.902Z,0.60
2023-01-13T09:52:15.181Z,0.50
2023-01-13T09:54:52.004Z,0.70
2023-01-13T09:57:21.510Z,0.70
2023-01-13T09:59:48.954Z,0.67
2023-01-13T10:02:55.099Z,0.70
2023-01-13T10:05:41.397Z,0.70
2023-01-13T10:08:15.988Z,0.60
2023-01-13T10:10:49.366Z,0.57
2023-01-13T10:13:22.031Z,0.60
2023-01-13T10:15:56.983Z,0.50
2023-01-13T10:18:50.125Z,1.00
2023-01-13T10:21:58.510Z,0.70
2023-01-13T10:24:59.012Z,0.80
2023-01-13T10:27:38.877Z,1.07
2023-01-13T10:30:22.453Z,1.00
2023-01-13T10:33:01.567Z,1.97
2023-01-13T10:35:56.998Z,0.77
2023-01-13T10:38:34.467Z,0.87
2023-01-13T10:41:24.387Z,0.70
2023-01-13T10:44:04.248Z,0.90
2023-01-13T10:46:34.929Z,0.90
2023-01-13T10:49:39.903Z,0.77
2023-01-13T10:52:28.427Z,0.77
2023-01-13T10:54:56.715Z,0.90
2023-01-13T10:57:27.016Z,1.40
2023-01-13T10:59:55.255Z,1.07
2023-01-13T11:02:36.090Z,1.47
2023-01-13T11:05:24.900Z,0.90
2023-01-13T11:07:54.931Z,1.00
2023-01-13T11:10:28.233Z,1.20
2023-01-13T11:13:16.803Z,1.23
2023-01-13T11:16:14.527Z,1.10
2023-01-13T11:19:11.920Z,1.13
2023-01-13T11:21:54.807Z,1.00
2023-01-13T11:24:36.810Z,1.20
2023-01-13T11:27:12.647Z,1.23
2023-01-13T11:29:59.136Z,1.77
2023-01-13T11:32:31.401Z,1.50
2023-01-13T11:35:05.326Z,1.03
2023-01-13T11:37:37.768Z,1.10
2023-01-13T11:40:07.030Z,1.03
2023-01-13T11:43:01.581Z,1.27
2023-01-13T11:45:58.490Z,0.90
2023-01-13T11:48:31.950Z,1.50
2023-01-13T11:51:14.113Z,0.87
2023-01-13T11:54:16.513Z,1.20
2023-01-13T11:57:02.076Z,0.97
2023-01-13T11:59:36.947Z,1.20
2023-01-13T12:02:47.557Z,1.47
2023-01-13T12:05:43.002Z,1.30
2023-01-13T12:08:16.799Z,0.90
2023-01-13T12:10:49.660Z,1.20
2023-01-13T12:13:46.050Z,1.40
2023-01-13T12:16:30.346Z,1.20
2023-01-13T12:19:11.028Z,1.53
2023-01-13T12:22:12.353Z,0.93
2023-01-13T12:24:55.132Z,1.23
2023-01-13T12:27:47.400Z,1.27
2023-01-13T12:30:31.991Z,1.20
2023-01-13T12:33:35.397Z,1.10
2023-01-13T12:36:16.044Z,0.90
2023-01-13T12:38:55.008Z,1.83
2023-01-13T12:42:16.336Z,1.50
2023-01-13T12:45:11.349Z,1.30
2023-01-13T12:47:44.256Z,1.27
2023-01-13T12:50:26.041Z,1.60
2023-01-13T12:52:57.350Z,2.40
2023-01-13T12:55:34.560Z,0.90
2023-01-13T12:58:10.683Z,1.23
2023-01-13T13:00:40.633Z,1.73
2023-01-13T13:03:18.597Z,1.87
2023-01-13T13:06:00.313Z,2.20
2023-01-13T13:08:48.845Z,2.10
2023-01-13T13:11:41.276Z,2.10
2023-01-13T13:14:13.961Z,1.23
2023-01-13T13:16:52.325Z,1.40
2023-01-13T13:19:20.032Z,1.40
2023-01-13T13:22:11.941Z,1.60
2023-01-13T13:24:40.959Z,0.90
2023-01-13T13:27:38.115Z,1.53
2023-01-13T13:30:18.403Z,1.00
2023-01-13T13:33:21.600Z,1.20
2023-01-13T13:36:26.720Z,1.43
2023-01-13T13:39:34.651Z,2.40
2023-01-13T13:42:31.064Z,1.07
2023-01-13T13:45:19.336Z,2.00
2023-01-13T13:47:46.424Z,1.27
2023-01-13T13:50:20.536Z,1.13
2023-01-13T13:52:59.193Z,1.40
2023-01-13T13:55:28.805Z,1.60
2023-01-13T13:57:57.824Z,1.40
2023-01-13T14:00:33.996Z,1.70
2023-01-13T14:03:38.992Z,1.30
2023-01-13T14:06:16.523Z,1.83
2023-01-13T14:08:50.421Z,1.10
2023-01-13T14:11:27.967Z,1.33
2023-01-13T14:14:17.160Z,0.90
2023-01-13T14:16:44.128Z,0.90
2023-01-13T14:19:40.259Z,1.77
2023-01-13T14:22:16.290Z,1.47
2023-01-13T14:24:49.330Z,1.00
2023-01-13T14:27:18.913Z,1.93
2023-01-13T14:29:46.149Z,3.27
2023-01-13T14:32:21.285Z,2.00
2023-01-13T14:34:48.518Z,1.40
2023-01-13T14:37:25.520Z,3.03
2023-01-13T14:39:52.448Z,1.60
2023-01-13T14:42:20.760Z,1.73
2023-01-13T14:44:50.700Z,1.90
2023-01-13T14:47:26.821Z,1.83
2023-01-13T14:50:07.539Z,1.97
2023-01-13T14:52:54.671Z,1.20
2023-01-13T14:55:30.567Z,1.07
2023-01-13T14:58:20.186Z,1.10
2023-01-13T15:00:47.558Z,1.63
2023-01-13T15:03:17.457Z,0.90
2023-01-13T15:05:52.595Z,1.00
2023-01-13T15:08:27.376Z,0.83
2023-01-13T15:11:14.644Z,0.60
2023-01-13T15:13:56.819Z,0.80
2023-01-13T15:16:26.330Z,0.70
2023-01-13T15:18:55.446Z,0.63
2023-01-13T15:21:23.311Z,0.60
2023-01-13T15:23:50.391Z,0.60
2023-01-13T15:26:23.679Z,0.77
2023-01-13T15:28:52.353Z,0.80
2023-01-13T15:31:20.315Z,1.20
2023-01-13T15:33:47.701Z,1.33
2023-01-13T15:36:29.855Z,2.20
2023-01-13T15:38:58.355Z,1.60
2023-01-13T15:41:44.592Z,1.60
2023-01-13T15:44:32.763Z,1.40
2023-01-13T15:47:03.713Z,2.40
2023-01-13T15:49:39.021Z,1.93
2023-01-13T15:52:21.446Z,1.70
2023-01-13T15:54:52.405Z,0.97
2023-01-13T15:57:27.288Z,1.00
2023-01-13T16:00:02.023Z,1.43
2023-01-13T16:02:33.851Z,1.60
2023-01-13T16:05:00.883Z,1.40
2023-01-13T16:07:28.353Z,2.80
2023-01-13T16:09:55.383Z,2.87
2023-01-13T16:12:22.387Z,2.00
2023-01-13T16:14:49.268Z,1.87
2023-01-13T16:17:22.540Z,1.97
2023-01-13T16:19:49.919Z,1.87
2023-01-13T16:22:17.733Z,2.00
2023-01-13T16:24:44.720Z,2.13
2023-01-13T16:27:17.790Z,1.87
2023-01-13T16:29:45.822Z,2.00
2023-01-13T16:32:12.847Z,2.43
2023-01-13T16:34:40.358Z,1.30
2023-01-13T16:37:19.890Z,2.07
2023-01-13T16:39:47.658Z,3.80
2023-01-13T16:42:15.065Z,2.03
2023-01-13T16:44:42.146Z,3.63
2023-01-13T16:47:17.449Z,3.70
2023-01-13T16:49:45.591Z,2.20
2023-01-13T16:52:12.666Z,2.77
2023-01-13T16:54:39.671Z,1.60
2023-01-13T16:57:07.833Z,1.50
2023-01-13T16:59:34.814Z,2.00
2023-01-13T17:02:02.209Z,2.17
2023-01-13T17:04:29.344Z,1.70
2023-01-13T17:07:06.361Z,2.37
2023-01-13T17:09:33.366Z,2.00
2023-01-13T17:12:00.954Z,2.00
2023-01-13T17:14:28.005Z,2.20
2023-01-13T17:16:58.126Z,1.90
2023-01-13T17:19:25.803Z,2.80
2023-01-13T17:21:53.049Z,2.30
2023-01-13T17:24:20.582Z,2.10
2023-01-13T17:26:50.413Z,1.87
2023-01-13T17:29:22.058Z,1.90
2023-01-13T17:31:50.720Z,2.07
2023-01-13T17:34:18.283Z,2.10
2023-01-13T17:36:45.427Z,2.13
2023-01-13T17:39:17.724Z,3.40
2023-01-13T17:41:45.807Z,3.57
2023-01-13T17:44:18.838Z,4.03
2023-01-13T17:46:46.557Z,4.00
2023-01-13T17:49:16.615Z,2.63
2023-01-13T17:51:44.862Z,2.20
2023-01-13T17:54:12.435Z,2.83
2023-01-13T17:56:41.162Z,1.73
2023-01-13T17:59:12.447Z,1.53
2023-01-13T18:01:40.207Z,2.13
2023-01-13T18:04:07.512Z,3.70
2023-01-13T18:06:34.791Z,3.63
2023-01-13T18:09:01.859Z,2.07
2023-01-13T18:11:28.858Z,2.40
2023-01-13T18:14:00.247Z,2.13
2023-01-13T18:16:29.706Z,2.73
2023-01-13T18:19:18.646Z,2.23
2023-01-13T18:22:06.080Z,2.43
2023-01-13T18:24:51.792Z,3.03
2023-01-13T18:27:27.283Z,2.63
2023-01-13T18:29:56.968Z,3.43
2023-01-13T18:32:30.448Z,3.87
2023-01-13T18:35:05.668Z,4.10
2023-01-13T18:37:36.064Z,4.00
2023-01-13T18:40:05.061Z,4.93
2023-01-13T18:42:50.751Z,3.13
2023-01-13T18:45:24.769Z,3.73
2023-01-13T18:47:53.488Z,2.10
2023-01-13T18:50:21.224Z,1.60
2023-01-13T18:52:48.301Z,2.20
2023-01-13T18:55:15.604Z,2.03
2023-01-13T18:57:42.640Z,1.83
2023-01-13T19:00:17.200Z,1.40
2023-01-13T19:02:47.048Z,2.27
2023-01-13T19:05:14.481Z,1.73
2023-01-13T19:07:43.475Z,2.53
2023-01-13T19:10:12.972Z,1.40
2023-01-13T19:12:39.994Z,2.33
2023-01-13T19:15:07.859Z,2.40
2023-01-13T19:17:35.871Z,2.27
2023-01-13T19:20:05.151Z,1.50
2023-01-13T19:22:34.669Z,2.00
2023-01-13T19:25:03.037Z,2.07
2023-01-13T19:27:31.008Z,1.43
2023-01-13T19:30:00.258Z,1.93
2023-01-13T19:32:28.010Z,1.63
2023-01-13T19:34:59.084Z,1.87
2023-01-13T19:37:30.182Z,1.60
2023-01-13T19:40:00.584Z,1.50
2023-01-13T19:42:47.130Z,2.13
2023-01-13T19:45:26.506Z,1.87
2023-01-13T19:47:54.724Z,1.93
2023-01-13T19:50:21.801Z,2.60
2023-01-13T19:52:48.877Z,1.30
2023-01-13T19:55:15.839Z,1.87
2023-01-13T19:57:43.473Z,2.00
2023-01-13T20:00:12.295Z,2.20
2023-01-13T20:02:47.975Z,2.17
2023-01-13T20:05:20.877Z,2.90
2023-01-13T20:07:49.971Z,1.67
2023-01-13T20:10:19.597Z,1.70
2023-01-13T20:12:46.576Z,3.23
2023-01-13T20:15:13.957Z,2.13
2023-01-13T20:17:41.560Z,1.87
2023-01-13T20:20:10.758Z,1.80
2023-01-13T20:22:41.397Z,2.53
2023-01-13T20:25:09.433Z,1.90
2023-01-13T20:27:37.488Z,2.63
2023-01-13T20:30:09.377Z,1.60
2023-01-13T20:32:37.238Z,2.20
2023-01-13T20:35:04.985Z,1.53
2023-01-13T20:37:31.960Z,3.53
2023-01-13T20:40:01.564Z,1.40
2023-01-13T20:42:39.649Z,1.40
2023-01-13T20:45:07.304Z,1.83
2023-01-13T20:47:34.421Z,1.87
2023-01-13T20:50:01.373Z,1.63
2023-01-13T20:52:28.596Z,1.43
2023-01-13T20:54:55.533Z,1.67
2023-01-13T20:57:23.140Z,1.40
2023-01-13T20:59:50.136Z,2.07
2023-01-13T21:02:17.944Z,1.80
2023-01-13T21:04:44.876Z,1.43
2023-01-13T21:07:11.885Z,1.73
2023-01-13T21:09:38.827Z,1.70
2023-01-13T21:12:25.196Z,1.50
2023-01-13T21:15:10.867Z,2.00
2023-01-13T21:17:56.143Z,1.47
2023-01-13T21:20:23.658Z,2.03
2023-01-13T21:22:50.652Z,1.13
2023-01-13T21:25:19.473Z,1.20
2023-01-13T21:27:46.734Z,1.70
2023-01-13T21:30:15.456Z,2.10
2023-01-13T21:32:44.407Z,1.40
2023-01-13T21:35:12.952Z,1.47
2023-01-13T21:37:42.295Z,1.70
2023-01-13T21:40:12.659Z,1.30
2023-01-13T21:42:58.256Z,2.13
2023-01-13T21:45:44.217Z,1.30
2023-01-13T21:48:11.446Z,1.27
2023-01-13T21:50:39.137Z,1.80
2023-01-13T21:53:07.822Z,1.37
2023-01-13T21:55:36.676Z,1.47
2023-01-13T21:58:14.530Z,2.20
2023-01-13T22:00:43.809Z,1.50
2023-01-13T22:03:12.946Z,1.73
2023-01-13T22:05:40.213Z,1.40
2023-01-13T22:08:07.957Z,1.57
2023-01-13T22:10:35.742Z,1.47
2023-01-13T22:13:23.306Z,1.70
2023-01-13T22:15:50.298Z,3.30
2023-01-13T22:18:20.417Z,1.50
2023-01-13T22:20:48.692Z,1.70
2023-01-13T22:23:15.685Z,1.50
2023-01-13T22:25:42.640Z,1.23
2023-01-13T22:28:13.619Z,1.60
2023-01-13T22:30:40.865Z,1.30
2023-01-13T22:33:07.823Z,1.73
2023-01-13T22:35:35.137Z,1.40
2023-01-13T22:38:02.120Z,1.70
2023-01-13T22:40:29.106Z,1.60
2023-01-13T22:42:56.407Z,1.20
2023-01-13T22:45:23.381Z,1.60
2023-01-13T22:47:50.346Z,1.70
2023-01-13T22:50:20.870Z,1.43
2023-01-13T22:52:47.950Z,2.03
2023-01-13T22:55:14.941Z,1.27
2023-01-13T22:57:47.730Z,1.60
2023-01-13T23:00:19.224Z,1.33
2023-01-13T23:02:46.903Z,1.60
2023-01-13T23:05:14.030Z,1.93
2023-01-13T23:07:41.483Z,1.30
2023-01-13T23:10:09.325Z,1.30
2023-01-13T23:12:36.391Z,1.33
2023-01-13T23:15:04.423Z,1.30
2023-01-13T23:17:31.668Z,1.40
2023-01-13T23:19:58.698Z,1.10
2023-01-13T23:22:25.713Z,1.47
2023-01-13T23:24:52.656Z,1.27
2023-01-13T23:27:19.625Z,1.03
2023-01-13T23:29:46.651Z,1.50
2023-01-13T23:32:13.602Z,1.53
2023-01-13T23:34:40.530Z,1.63
2023-01-13T23:37:07.466Z,2.27
2023-01-13T23:39:34.402Z,1.40
2023-01-13T23:42:01.829Z,1.37
2023-01-13T23:44:29.429Z,1.53
2023-01-13T23:46:56.812Z,1.23
2023-01-13T23:49:24.074Z,1.20
2023-01-13T23:51:52.321Z,1.63
2023-01-13T23:54:20.010Z,2.33
2023-01-13T23:56:49.471Z,1.50
2023-01-13T23:59:16.524Z,2.33
